Springfield, Arkansas
Current Conditions -  °F | °C
As of 11:55 AM on Friday 28 Nov 2014 (Local Time) from KCCA Reporting Station
Clear Clear  
Wind Chill: 45°   Ceiling: Unl
Heat Index: 48°   Visibility: 9mi
Dew Point: 32°   Wind: 7mph
Humidity: 54%   Direction: 190°S
Pressure: 30.23"   Gusts: NA
Location:  35.27°N, 92.56°W
Report Text: KCCA 281755Z AUTO 19006KT 9SM CLR 09/00 A3023 RMK AO2
Loading
Personal Weather Stations






























Interactive Weather Map New forecast layout! Learn more

10-Day Weather Forecast

Advertisements
Track Severe Weather on mobile